sensor_id;sensor_type;location;lat;lon;timestamp;temperature;humidity
31271;DHT22;17904;47.420;9.310;2023-01-15T00:01:54;7.40;99.90
31271;DHT22;17904;47.420;9.310;2023-01-15T00:04:21;7.40;99.90
31271;DHT22;17904;47.420;9.310;2023-01-15T00:06:48;7.40;99.90
31271;DHT22;17904;47.420;9.310;2023-01-15T00:09:16;7.40;99.90
31271;DHT22;17904;47.420;9.310;2023-01-15T00:11:42;7.40;99.90
31271;DHT22;17904;47.420;9.310;2023-01-15T00:14:09;7.40;99.90
31271;DHT22;17904;47.420;9.310;2023-01-15T00:16:36;7.40;99.90
31271;DHT22;17904;47.420;9.310;2023-01-15T00:19:06;7.40;99.90
31271;DHT22;17904;47.420;9.310;2023-01-15T00:21:36;7.50;99.90
31271;DHT22;17904;47.420;9.310;2023-01-15T00:24:02;7.60;99.90
31271;DHT22;17904;47.420;9.310;2023-01-15T00:26:48;7.60;99.90
31271;DHT22;17904;47.420;9.310;2023-01-15T00:29:33;7.60;99.90
31271;DHT22;17904;47.420;9.310;2023-01-15T00:32:04;7.60;99.90
31271;DHT22;17904;47.420;9.310;2023-01-15T00:34:32;7.60;99.90
31271;DHT22;17904;47.420;9.310;2023-01-15T00:36:59;7.50;99.90
31271;DHT22;17904;47.420;9.310;2023-01-15T00:39:26;7.50;99.90
31271;DHT22;17904;47.420;9.310;2023-01-15T00:41:54;7.40;99.90
31271;DHT22;17904;47.420;9.310;2023-01-15T00:44:21;7.40;99.90
31271;DHT22;17904;47.420;9.310;2023-01-15T00:46:50;7.30;99.90
31271;DHT22;17904;47.420;9.310;2023-01-15T00:49:19;7.30;99.90
31271;DHT22;17904;47.420;9.310;2023-01-15T00:51:46;7.30;99.90
31271;DHT22;17904;47.420;9.310;2023-01-15T00:54:16;7.20;99.90
31271;DHT22;17904;47.420;9.310;2023-01-15T00:56:43;7.20;99.90
31271;DHT22;17904;47.420;9.310;2023-01-15T00:59:10;7.10;99.90
31271;DHT22;17904;47.420;9.310;2023-01-15T01:01:37;7.10;99.90
31271;DHT22;17904;47.420;9.310;2023-01-15T01:04:04;7.10;99.90
31271;DHT22;17904;47.420;9.310;2023-01-15T01:06:33;7.10;99.90
31271;DHT22;17904;47.420;9.310;2023-01-15T01:09:00;7.10;99.90
31271;DHT22;17904;47.420;9.310;2023-01-15T01:11:29;7.10;99.90
31271;DHT22;17904;47.420;9.310;2023-01-15T01:14:00;7.10;99.90
31271;DHT22;17904;47.420;9.310;2023-01-15T01:16:34;7.10;99.90
31271;DHT22;17904;47.420;9.310;2023-01-15T01:19:13;7.10;99.90
31271;DHT22;17904;47.420;9.310;2023-01-15T01:21:41;7.20;99.90
31271;DHT22;17904;47.420;9.310;2023-01-15T01:24:11;7.10;99.90
31271;DHT22;17904;47.420;9.310;2023-01-15T01:26:38;7.10;99.90
31271;DHT22;17904;47.420;9.310;2023-01-15T01:29:05;7.10;99.90
31271;DHT22;17904;47.420;9.310;2023-01-15T01:31:32;7.10;99.90
31271;DHT22;17904;47.420;9.310;2023-01-15T01:33:59;7.10;99.90
31271;DHT22;17904;47.420;9.310;2023-01-15T01:36:29;7.10;99.90
31271;DHT22;17904;47.420;9.310;2023-01-15T01:38:57;7.10;99.90
31271;DHT22;17904;47.420;9.310;2023-01-15T01:41:24;7.10;99.90
31271;DHT22;17904;47.420;9.310;2023-01-15T01:43:58;7.10;99.90
31271;DHT22;17904;47.420;9.310;2023-01-15T01:46:27;7.10;99.90
31271;DHT22;17904;47.420;9.310;2023-01-15T01:49:10;7.00;99.90
31271;DHT22;17904;47.420;9.310;2023-01-15T01:51:41;7.00;99.90
31271;DHT22;17904;47.420;9.310;2023-01-15T01:54:11;7.00;99.90
31271;DHT22;17904;47.420;9.310;2023-01-15T01:56:39;6.90;99.90
31271;DHT22;17904;47.420;9.310;2023-01-15T01:59:07;6.90;99.90
31271;DHT22;17904;47.420;9.310;2023-01-15T02:01:34;6.90;99.90
31271;DHT22;17904;47.420;9.310;2023-01-15T02:04:04;6.90;99.90
31271;DHT22;17904;47.420;9.310;2023-01-15T02:06:32;6.90;99.90
31271;DHT22;17904;47.420;9.310;2023-01-15T02:09:01;6.90;99.90
31271;DHT22;17904;47.420;9.310;2023-01-15T02:11:27;6.80;99.90
31271;DHT22;17904;47.420;9.310;2023-01-15T02:14:15;6.80;99.90
31271;DHT22;17904;47.420;9.310;2023-01-15T02:24:51;6.70;99.90
31271;DHT22;17904;47.420;9.310;2023-01-15T02:27:21;6.70;99.90
31271;DHT22;17904;47.420;9.310;2023-01-15T02:32:49;6.60;99.90
31271;DHT22;17904;47.420;9.310;2023-01-15T02:35:28;6.60;99.90
31271;DHT22;17904;47.420;9.310;2023-01-15T02:37:58;6.60;99.90
31271;DHT22;17904;47.420;9.310;2023-01-15T02:40:27;6.60;99.90
31271;DHT22;17904;47.420;9.310;2023-01-15T02:42:55;6.60;99.90
31271;DHT22;17904;47.420;9.310;2023-01-15T02:45:27;6.60;99.90
31271;DHT22;17904;47.420;9.310;2023-01-15T02:48:05;6.60;99.90
31271;DHT22;17904;47.420;9.310;2023-01-15T02:50:41;6.60;99.90
31271;DHT22;17904;47.420;9.310;2023-01-15T02:53:13;6.60;99.90
31271;DHT22;17904;47.420;9.310;2023-01-15T02:55:43;6.60;99.90
31271;DHT22;17904;47.420;9.310;2023-01-15T02:58:18;6.60;99.90
31271;DHT22;17904;47.420;9.310;2023-01-15T03:00:48;6.60;99.90
31271;DHT22;17904;47.420;9.310;2023-01-15T03:03:35;6.60;99.90
31271;DHT22;17904;47.420;9.310;2023-01-15T03:06:10;6.60;99.90
31271;DHT22;17904;47.420;9.310;2023-01-15T03:08:39;6.60;99.90
31271;DHT22;17904;47.420;9.310;2023-01-15T03:11:09;6.60;99.90
31271;DHT22;17904;47.420;9.310;2023-01-15T03:22:06;6.60;99.90
31271;DHT22;17904;47.420;9.310;2023-01-15T03:24:45;6.60;99.90
31271;DHT22;17904;47.420;9.310;2023-01-15T03:27:17;6.60;99.90
31271;DHT22;17904;47.420;9.310;2023-01-15T03:29:52;6.60;99.90
31271;DHT22;17904;47.420;9.310;2023-01-15T03:32:20;6.60;99.90
31271;DHT22;17904;47.420;9.310;2023-01-15T03:34:54;6.60;99.90
31271;DHT22;17904;47.420;9.310;2023-01-15T03:37:24;6.60;99.90
31271;DHT22;17904;47.420;9.310;2023-01-15T03:39:54;6.60;99.90
31271;DHT22;17904;47.420;9.310;2023-01-15T03:42:53;6.60;99.90
31271;DHT22;17904;47.420;9.310;2023-01-15T03:45:46;6.60;99.90
31271;DHT22;17904;47.420;9.310;2023-01-15T03:48:37;6.60;99.90
31271;DHT22;17904;47.420;9.310;2023-01-15T03:51:19;6.70;99.90
31271;DHT22;17904;47.420;9.310;2023-01-15T03:53:52;6.70;99.90
31271;DHT22;17904;47.420;9.310;2023-01-15T03:56:40;6.70;99.90
31271;DHT22;17904;47.420;9.310;2023-01-15T03:59:16;6.70;99.90
31271;DHT22;17904;47.420;9.310;2023-01-15T04:01:56;6.70;99.90
31271;DHT22;17904;47.420;9.310;2023-01-15T04:04:25;6.70;99.90
31271;DHT22;17904;47.420;9.310;2023-01-15T04:06:54;6.80;99.90
31271;DHT22;17904;47.420;9.310;2023-01-15T04:09:21;6.80;99.90
31271;DHT22;17904;47.420;9.310;2023-01-15T04:11:52;6.90;99.90
31271;DHT22;17904;47.420;9.310;2023-01-15T04:14:18;6.90;99.90
31271;DHT22;17904;47.420;9.310;2023-01-15T04:16:49;7.00;99.90
31271;DHT22;17904;47.420;9.310;2023-01-15T04:19:16;7.10;99.90
31271;DHT22;17904;47.420;9.310;2023-01-15T04:21:50;7.40;99.90
31271;DHT22;17904;47.420;9.310;2023-01-15T04:24:17;7.80;99.90
31271;DHT22;17904;47.420;9.310;2023-01-15T04:26:44;8.30;99.90
31271;DHT22;17904;47.420;9.310;2023-01-15T04:29:11;8.70;99.90
31271;DHT22;17904;47.420;9.310;2023-01-15T04:31:38;9.10;99.90
31271;DHT22;17904;47.420;9.310;2023-01-15T04:34:04;9.30;99.90
31271;DHT22;17904;47.420;9.310;2023-01-15T04:36:31;9.50;99.90
31271;DHT22;17904;47.420;9.310;2023-01-15T04:39:02;9.60;99.90
31271;DHT22;17904;47.420;9.310;2023-01-15T04:41:29;9.70;99.90
31271;DHT22;17904;47.420;9.310;2023-01-15T04:44:14;9.60;99.90
31271;DHT22;17904;47.420;9.310;2023-01-15T04:46:42;9.50;99.90
31271;DHT22;17904;47.420;9.310;2023-01-15T04:49:15;9.40;99.90
31271;DHT22;17904;47.420;9.310;2023-01-15T04:51:42;9.20;99.90
31271;DHT22;17904;47.420;9.310;2023-01-15T04:54:12;9.10;99.90
31271;DHT22;17904;47.420;9.310;2023-01-15T04:56:45;8.90;99.90
31271;DHT22;17904;47.420;9.310;2023-01-15T04:59:14;8.80;99.90
31271;DHT22;17904;47.420;9.310;2023-01-15T05:01:41;8.60;99.90
31271;DHT22;17904;47.420;9.310;2023-01-15T05:04:24;8.50;99.90
31271;DHT22;17904;47.420;9.310;2023-01-15T05:06:51;8.30;99.90
31271;DHT22;17904;47.420;9.310;2023-01-15T05:09:18;8.10;99.90
31271;DHT22;17904;47.420;9.310;2023-01-15T05:11:45;8.00;99.90
31271;DHT22;17904;47.420;9.310;2023-01-15T05:14:12;7.90;99.90
31271;DHT22;17904;47.420;9.310;2023-01-15T05:16:39;7.80;99.90
31271;DHT22;17904;47.420;9.310;2023-01-15T05:19:05;7.70;99.90
31271;DHT22;17904;47.420;9.310;2023-01-15T05:21:39;7.70;99.90
31271;DHT22;17904;47.420;9.310;2023-01-15T05:24:08;7.70;99.90
31271;DHT22;17904;47.420;9.310;2023-01-15T05:26:38;7.70;99.90
31271;DHT22;17904;47.420;9.310;2023-01-15T05:29:05;7.80;99.90
31271;DHT22;17904;47.420;9.310;2023-01-15T05:31:32;7.80;99.90
31271;DHT22;17904;47.420;9.310;2023-01-15T05:34:01;7.90;99.90
31271;DHT22;17904;47.420;9.310;2023-01-15T05:36:30;8.00;99.90
31271;DHT22;17904;47.420;9.310;2023-01-15T05:38:58;8.00;99.90
31271;DHT22;17904;47.420;9.310;2023-01-15T05:41:29;8.10;99.90
31271;DHT22;17904;47.420;9.310;2023-01-15T05:44:22;8.10;99.90
31271;DHT22;17904;47.420;9.310;2023-01-15T05:46:51;8.20;99.90
31271;DHT22;17904;47.420;9.310;2023-01-15T05:49:21;8.30;99.90
31271;DHT22;17904;47.420;9.310;2023-01-15T05:51:49;8.30;99.90
31271;DHT22;17904;47.420;9.310;2023-01-15T05:54:21;8.30;99.90
31271;DHT22;17904;47.420;9.310;2023-01-15T05:56:48;8.20;99.90
31271;DHT22;17904;47.420;9.310;2023-01-15T05:59:17;8.20;99.90
31271;DHT22;17904;47.420;9.310;2023-01-15T06:01:44;8.20;99.90
31271;DHT22;17904;47.420;9.310;2023-01-15T06:04:11;8.20;99.90
31271;DHT22;17904;47.420;9.310;2023-01-15T06:06:43;8.20;99.90
31271;DHT22;17904;47.420;9.310;2023-01-15T06:09:10;8.30;99.90
31271;DHT22;17904;47.420;9.310;2023-01-15T06:11:37;8.40;99.90
31271;DHT22;17904;47.420;9.310;2023-01-15T06:14:04;8.50;99.90
31271;DHT22;17904;47.420;9.310;2023-01-15T06:16:31;8.60;99.90
31271;DHT22;17904;47.420;9.310;2023-01-15T06:19:03;8.60;99.90
31271;DHT22;17904;47.420;9.310;2023-01-15T06:21:31;8.60;99.90
31271;DHT22;17904;47.420;9.310;2023-01-15T06:23:58;8.70;99.90
31271;DHT22;17904;47.420;9.310;2023-01-15T06:26:25;8.70;99.90
31271;DHT22;17904;47.420;9.310;2023-01-15T06:28:52;8.70;99.90
31271;DHT22;17904;47.420;9.310;2023-01-15T06:31:20;8.70;99.90
31271;DHT22;17904;47.420;9.310;2023-01-15T06:33:47;8.70;99.90
31271;DHT22;17904;47.420;9.310;2023-01-15T06:36:16;8.70;99.90
31271;DHT22;17904;47.420;9.310;2023-01-15T06:38:43;8.80;99.90
31271;DHT22;17904;47.420;9.310;2023-01-15T06:41:16;8.80;99.90
31271;DHT22;17904;47.420;9.310;2023-01-15T06:44:02;8.90;99.90
31271;DHT22;17904;47.420;9.310;2023-01-15T06:46:48;9.00;99.90
31271;DHT22;17904;47.420;9.310;2023-01-15T06:49:35;9.00;99.90
31271;DHT22;17904;47.420;9.310;2023-01-15T06:52:03;9.10;99.90
31271;DHT22;17904;47.420;9.310;2023-01-15T06:54:30;9.10;99.90
31271;DHT22;17904;47.420;9.310;2023-01-15T06:56:57;9.10;99.90
31271;DHT22;17904;47.420;9.310;2023-01-15T06:59:24;9.20;99.90
31271;DHT22;17904;47.420;9.310;2023-01-15T07:01:51;9.30;99.90
31271;DHT22;17904;47.420;9.310;2023-01-15T07:04:18;9.30;99.90
31271;DHT22;17904;47.420;9.310;2023-01-15T07:06:45;9.40;99.90
31271;DHT22;17904;47.420;9.310;2023-01-15T07:09:12;9.40;99.90
31271;DHT22;17904;47.420;9.310;2023-01-15T07:11:38;9.40;99.90
31271;DHT22;17904;47.420;9.310;2023-01-15T07:14:22;9.40;99.90
31271;DHT22;17904;47.420;9.310;2023-01-15T07:16:50;9.50;99.90
31271;DHT22;17904;47.420;9.310;2023-01-15T07:19:18;9.50;99.90
31271;DHT22;17904;47.420;9.310;2023-01-15T07:21:45;9.50;99.90
31271;DHT22;17904;47.420;9.310;2023-01-15T07:24:13;9.40;99.90
31271;DHT22;17904;47.420;9.310;2023-01-15T07:26:41;9.40;99.90
31271;DHT22;17904;47.420;9.310;2023-01-15T07:29:08;9.30;99.90
31271;DHT22;17904;47.420;9.310;2023-01-15T07:31:35;9.30;99.90
31271;DHT22;17904;47.420;9.310;2023-01-15T07:34:02;9.20;99.90
31271;DHT22;17904;47.420;9.310;2023-01-15T07:36:29;9.10;99.90
31271;DHT22;17904;47.420;9.310;2023-01-15T07:38:56;9.10;99.90
31271;DHT22;17904;47.420;9.310;2023-01-15T07:41:22;9.10;99.90
31271;DHT22;17904;47.420;9.310;2023-01-15T07:44:10;9.00;99.90
31271;DHT22;17904;47.420;9.310;2023-01-15T07:46:56;9.00;99.90
31271;DHT22;17904;47.420;9.310;2023-01-15T07:49:42;8.90;99.90
31271;DHT22;17904;47.420;9.310;2023-01-15T07:54:39;8.80;99.90
31271;DHT22;17904;47.420;9.310;2023-01-15T07:57:06;8.70;99.90
31271;DHT22;17904;47.420;9.310;2023-01-15T07:59:33;8.60;99.90
31271;DHT22;17904;47.420;9.310;2023-01-15T08:02:00;8.60;99.90
31271;DHT22;17904;47.420;9.310;2023-01-15T08:04:27;8.60;99.90
31271;DHT22;17904;47.420;9.310;2023-01-15T08:06:54;8.60;99.90
31271;DHT22;17904;47.420;9.310;2023-01-15T08:09:20;8.50;99.90
31271;DHT22;17904;47.420;9.310;2023-01-15T08:11:47;8.50;99.90
31271;DHT22;17904;47.420;9.310;2023-01-15T08:14:32;8.60;99.90
31271;DHT22;17904;47.420;9.310;2023-01-15T08:17:18;8.70;99.90
31271;DHT22;17904;47.420;9.310;2023-01-15T08:19:45;8.80;99.90
31271;DHT22;17904;47.420;9.310;2023-01-15T08:22:11;8.90;99.90
31271;DHT22;17904;47.420;9.310;2023-01-15T08:24:38;9.00;99.90
31271;DHT22;17904;47.420;9.310;2023-01-15T08:27:05;9.00;99.90
31271;DHT22;17904;47.420;9.310;2023-01-15T08:29:31;9.10;99.90
31271;DHT22;17904;47.420;9.310;2023-01-15T08:31:58;9.10;99.90
31271;DHT22;17904;47.420;9.310;2023-01-15T08:34:28;9.10;99.90
31271;DHT22;17904;47.420;9.310;2023-01-15T08:36:55;9.20;99.90
31271;DHT22;17904;47.420;9.310;2023-01-15T08:39:28;9.20;99.90
31271;DHT22;17904;47.420;9.310;2023-01-15T08:41:55;9.20;99.90
31271;DHT22;17904;47.420;9.310;2023-01-15T08:44:22;9.30;99.90
31271;DHT22;17904;47.420;9.310;2023-01-15T08:46:51;9.40;99.90
31271;DHT22;17904;47.420;9.310;2023-01-15T08:49:19;9.50;99.90
31271;DHT22;17904;47.420;9.310;2023-01-15T08:51:46;9.70;99.90
31271;DHT22;17904;47.420;9.310;2023-01-15T08:54:18;9.80;99.90
31271;DHT22;17904;47.420;9.310;2023-01-15T08:56:46;9.90;99.90
31271;DHT22;17904;47.420;9.310;2023-01-15T08:59:13;9.90;99.90
31271;DHT22;17904;47.420;9.310;2023-01-15T09:01:40;10.00;99.90
31271;DHT22;17904;47.420;9.310;2023-01-15T09:04:12;10.10;99.90
31271;DHT22;17904;47.420;9.310;2023-01-15T09:06:39;10.10;99.90
31271;DHT22;17904;47.420;9.310;2023-01-15T09:09:05;10.20;99.90
31271;DHT22;17904;47.420;9.310;2023-01-15T09:11:32;10.20;99.90
31271;DHT22;17904;47.420;9.310;2023-01-15T09:13:59;10.20;99.90
31271;DHT22;17904;47.420;9.310;2023-01-15T09:16:26;10.30;99.90
31271;DHT22;17904;47.420;9.310;2023-01-15T09:18:53;10.20;99.90
31271;DHT22;17904;47.420;9.310;2023-01-15T09:21:20;10.10;99.90
31271;DHT22;17904;47.420;9.310;2023-01-15T09:23:46;10.00;99.90
31271;DHT22;17904;47.420;9.310;2023-01-15T09:26:27;9.80;99.90
31271;DHT22;17904;47.420;9.310;2023-01-15T09:28:54;9.70;99.90
31271;DHT22;17904;47.420;9.310;2023-01-15T09:31:22;9.40;99.90
31271;DHT22;17904;47.420;9.310;2023-01-15T09:33:49;9.00;99.90
31271;DHT22;17904;47.420;9.310;2023-01-15T09:36:19;8.70;99.90
31271;DHT22;17904;47.420;9.310;2023-01-15T09:38:48;8.40;99.90
31271;DHT22;17904;47.420;9.310;2023-01-15T09:41:16;8.20;99.90
31271;DHT22;17904;47.420;9.310;2023-01-15T09:47:08;7.70;99.90
31271;DHT22;17904;47.420;9.310;2023-01-15T09:49:56;7.50;99.90
31271;DHT22;17904;47.420;9.310;2023-01-15T09:55:15;7.10;99.90
31271;DHT22;17904;47.420;9.310;2023-01-15T09:57:44;6.90;99.90
31271;DHT22;17904;47.420;9.310;2023-01-15T10:00:17;6.80;99.90
31271;DHT22;17904;47.420;9.310;2023-01-15T10:02:45;6.60;99.90
31271;DHT22;17904;47.420;9.310;2023-01-15T10:05:27;6.50;99.90
31271;DHT22;17904;47.420;9.310;2023-01-15T10:08:10;6.30;99.90
31271;DHT22;17904;47.420;9.310;2023-01-15T10:10:47;6.30;99.90
31271;DHT22;17904;47.420;9.310;2023-01-15T10:13:48;6.20;99.90
31271;DHT22;17904;47.420;9.310;2023-01-15T10:16:24;6.00;99.90
31271;DHT22;17904;47.420;9.310;2023-01-15T10:18:52;5.90;99.90
31271;DHT22;17904;47.420;9.310;2023-01-15T10:24:04;5.70;99.90
31271;DHT22;17904;47.420;9.310;2023-01-15T10:26:53;5.50;99.90
31271;DHT22;17904;47.420;9.310;2023-01-15T10:29:36;5.50;99.90
31271;DHT22;17904;47.420;9.310;2023-01-15T10:35:04;5.40;99.90
31271;DHT22;17904;47.420;9.310;2023-01-15T10:37:50;5.30;99.90
31271;DHT22;17904;47.420;9.310;2023-01-15T10:40:59;5.30;99.90
31271;DHT22;17904;47.420;9.310;2023-01-15T10:46:36;5.20;99.90
31271;DHT22;17904;47.420;9.310;2023-01-15T10:49:15;5.10;99.90
31271;DHT22;17904;47.420;9.310;2023-01-15T10:51:51;5.00;99.90
31271;DHT22;17904;47.420;9.310;2023-01-15T10:54:30;4.90;99.90
31271;DHT22;17904;47.420;9.310;2023-01-15T10:57:06;4.80;99.90
31271;DHT22;17904;47.420;9.310;2023-01-15T10:59:56;4.70;99.90
31271;DHT22;17904;47.420;9.310;2023-01-15T11:05:01;4.50;99.90
31271;DHT22;17904;47.420;9.310;2023-01-15T11:07:37;4.40;99.90
31271;DHT22;17904;47.420;9.310;2023-01-15T11:10:17;4.40;99.90
31271;DHT22;17904;47.420;9.310;2023-01-15T11:12:57;4.30;99.90
31271;DHT22;17904;47.420;9.310;2023-01-15T11:15:46;4.20;99.90
31271;DHT22;17904;47.420;9.310;2023-01-15T11:18:40;4.20;99.90
31271;DHT22;17904;47.420;9.310;2023-01-15T11:21:27;4.00;99.90
31271;DHT22;17904;47.420;9.310;2023-01-15T11:23:57;4.00;99.90
31271;DHT22;17904;47.420;9.310;2023-01-15T11:26:30;4.00;99.90
31271;DHT22;17904;47.420;9.310;2023-01-15T11:28:59;3.90;99.90
31271;DHT22;17904;47.420;9.310;2023-01-15T11:31:35;3.80;99.90
31271;DHT22;17904;47.420;9.310;2023-01-15T11:34:05;3.70;99.90
31271;DHT22;17904;47.420;9.310;2023-01-15T11:36:32;3.60;99.90
31271;DHT22;17904;47.420;9.310;2023-01-15T11:39:00;3.60;99.90
31271;DHT22;17904;47.420;9.310;2023-01-15T11:41:30;3.50;99.90
31271;DHT22;17904;47.420;9.310;2023-01-15T11:44:17;3.50;99.90
31271;DHT22;17904;47.420;9.310;2023-01-15T11:47:09;3.40;99.90
31271;DHT22;17904;47.420;9.310;2023-01-15T11:49:55;3.40;99.90
31271;DHT22;17904;47.420;9.310;2023-01-15T11:52:46;3.40;99.90
31271;DHT22;17904;47.420;9.310;2023-01-15T11:55:20;3.40;99.90
31271;DHT22;17904;47.420;9.310;2023-01-15T11:57:48;3.30;99.90
31271;DHT22;17904;47.420;9.310;2023-01-15T12:00:28;3.30;99.90
31271;DHT22;17904;47.420;9.310;2023-01-15T12:03:16;3.30;99.90
31271;DHT22;17904;47.420;9.310;2023-01-15T12:05:58;3.20;99.90
31271;DHT22;17904;47.420;9.310;2023-01-15T12:11:53;3.20;99.90
31271;DHT22;17904;47.420;9.310;2023-01-15T12:20:26;3.20;99.90
31271;DHT22;17904;47.420;9.310;2023-01-15T12:23:22;3.10;99.90
31271;DHT22;17904;47.420;9.310;2023-01-15T12:26:22;2.90;99.90
31271;DHT22;17904;47.420;9.310;2023-01-15T12:28:56;2.90;99.90
31271;DHT22;17904;47.420;9.310;2023-01-15T12:31:31;2.80;99.90
31271;DHT22;17904;47.420;9.310;2023-01-15T12:34:12;2.70;99.90
31271;DHT22;17904;47.420;9.310;2023-01-15T12:36:45;2.50;99.90
31271;DHT22;17904;47.420;9.310;2023-01-15T12:39:28;2.50;99.90
31271;DHT22;17904;47.420;9.310;2023-01-15T12:41:59;2.40;99.90
31271;DHT22;17904;47.420;9.310;2023-01-15T12:44:55;2.40;99.90
31271;DHT22;17904;47.420;9.310;2023-01-15T12:47:48;2.40;99.90
31271;DHT22;17904;47.420;9.310;2023-01-15T12:53:14;2.40;99.90
31271;DHT22;17904;47.420;9.310;2023-01-15T12:56:04;2.40;99.90
31271;DHT22;17904;47.420;9.310;2023-01-15T13:06:55;2.40;99.90
31271;DHT22;17904;47.420;9.310;2023-01-15T13:09:44;2.40;99.90
31271;DHT22;17904;47.420;9.310;2023-01-15T13:12:14;2.40;99.90
31271;DHT22;17904;47.420;9.310;2023-01-15T13:14:42;2.40;99.90
31271;DHT22;17904;47.420;9.310;2023-01-15T13:22:53;2.40;99.90
31271;DHT22;17904;47.420;9.310;2023-01-15T13:33:58;2.30;99.90
31271;DHT22;17904;47.420;9.310;2023-01-15T13:36:35;2.30;99.90
31271;DHT22;17904;47.420;9.310;2023-01-15T13:39:13;2.20;99.90
31271;DHT22;17904;47.420;9.310;2023-01-15T13:41:42;2.20;99.90
31271;DHT22;17904;47.420;9.310;2023-01-15T13:44:36;2.20;99.90
31271;DHT22;17904;47.420;9.310;2023-01-15T13:47:13;2.20;99.90
31271;DHT22;17904;47.420;9.310;2023-01-15T13:49:50;2.10;99.90
31271;DHT22;17904;47.420;9.310;2023-01-15T13:52:28;2.20;99.90
31271;DHT22;17904;47.420;9.310;2023-01-15T13:54:56;2.10;99.90
31271;DHT22;17904;47.420;9.310;2023-01-15T13:57:37;2.10;99.90
31271;DHT22;17904;47.420;9.310;2023-01-15T14:02:54;2.20;99.90
31271;DHT22;17904;47.420;9.310;2023-01-15T14:05:34;2.10;99.90
31271;DHT22;17904;47.420;9.310;2023-01-15T14:08:14;2.20;99.90
31271;DHT22;17904;47.420;9.310;2023-01-15T14:10:41;2.20;99.90
31271;DHT22;17904;47.420;9.310;2023-01-15T14:21:33;2.30;99.90
31271;DHT22;17904;47.420;9.310;2023-01-15T14:35:44;2.30;99.90
31271;DHT22;17904;47.420;9.310;2023-01-15T14:38:15;2.30;99.90
31271;DHT22;17904;47.420;9.310;2023-01-15T14:40:56;2.20;99.90
31271;DHT22;17904;47.420;9.310;2023-01-15T14:43:27;2.30;99.90
31271;DHT22;17904;47.420;9.310;2023-01-15T14:45:55;2.30;99.90
31271;DHT22;17904;47.420;9.310;2023-01-15T14:51:15;2.30;99.90
31271;DHT22;17904;47.420;9.310;2023-01-15T14:53:45;2.30;99.90
31271;DHT22;17904;47.420;9.310;2023-01-15T14:56:22;2.30;99.90
31271;DHT22;17904;47.420;9.310;2023-01-15T14:59:14;2.30;99.90
31271;DHT22;17904;47.420;9.310;2023-01-15T15:01:56;2.30;99.90
31271;DHT22;17904;47.420;9.310;2023-01-15T15:04:37;2.30;99.90
31271;DHT22;17904;47.420;9.310;2023-01-15T15:07:26;2.20;99.90
31271;DHT22;17904;47.420;9.310;2023-01-15T15:10:08;2.20;99.90
31271;DHT22;17904;47.420;9.310;2023-01-15T15:12:57;2.20;99.90
31271;DHT22;17904;47.420;9.310;2023-01-15T15:18:32;2.20;99.90
31271;DHT22;17904;47.420;9.310;2023-01-15T15:23:47;2.20;99.90
31271;DHT22;17904;47.420;9.310;2023-01-15T15:26:34;2.20;99.90
31271;DHT22;17904;47.420;9.310;2023-01-15T15:29:05;2.20;99.90
31271;DHT22;17904;47.420;9.310;2023-01-15T15:31:35;2.20;99.90
31271;DHT22;17904;47.420;9.310;2023-01-15T15:34:05;2.20;99.90
31271;DHT22;17904;47.420;9.310;2023-01-15T15:36:34;2.10;99.90
31271;DHT22;17904;47.420;9.310;2023-01-15T15:39:19;2.10;99.90
31271;DHT22;17904;47.420;9.310;2023-01-15T15:41:51;2.10;99.90
31271;DHT22;17904;47.420;9.310;2023-01-15T15:44:59;2.10;99.90
31271;DHT22;17904;47.420;9.310;2023-01-15T15:47:44;2.00;99.90
31271;DHT22;17904;47.420;9.310;2023-01-15T15:50:34;2.00;99.90
31271;DHT22;17904;47.420;9.310;2023-01-15T15:53:01;1.90;99.90
31271;DHT22;17904;47.420;9.310;2023-01-15T15:55:39;1.80;99.90
31271;DHT22;17904;47.420;9.310;2023-01-15T15:58:12;1.80;99.90
31271;DHT22;17904;47.420;9.310;2023-01-15T16:00:43;1.80;99.90
31271;DHT22;17904;47.420;9.310;2023-01-15T16:03:25;1.70;99.90
31271;DHT22;17904;47.420;9.310;2023-01-15T16:05:58;1.60;99.90
31271;DHT22;17904;47.420;9.310;2023-01-15T16:08:26;1.60;99.90
31271;DHT22;17904;47.420;9.310;2023-01-15T16:10:55;1.50;99.90
31271;DHT22;17904;47.420;9.310;2023-01-15T16:13:44;1.40;99.90
31271;DHT22;17904;47.420;9.310;2023-01-15T16:16:12;1.40;99.90
31271;DHT22;17904;47.420;9.310;2023-01-15T16:18:44;1.30;99.90
31271;DHT22;17904;47.420;9.310;2023-01-15T16:21:35;1.30;99.90
31271;DHT22;17904;47.420;9.310;2023-01-15T16:24:08;1.30;99.90
31271;DHT22;17904;47.420;9.310;2023-01-15T16:26:51;1.20;99.90
31271;DHT22;17904;47.420;9.310;2023-01-15T16:29:25;1.20;99.90
31271;DHT22;17904;47.420;9.310;2023-01-15T16:31:53;1.10;99.90
31271;DHT22;17904;47.420;9.310;2023-01-15T16:34:28;1.10;99.90
31271;DHT22;17904;47.420;9.310;2023-01-15T16:36:57;1.10;99.90
31271;DHT22;17904;47.420;9.310;2023-01-15T16:42:03;1.10;99.90
31271;DHT22;17904;47.420;9.310;2023-01-15T16:47:00;1.10;99.90
31271;DHT22;17904;47.420;9.310;2023-01-15T16:49:29;1.00;99.90
31271;DHT22;17904;47.420;9.310;2023-01-15T16:51:58;1.00;99.90
31271;DHT22;17904;47.420;9.310;2023-01-15T16:56:59;1.00;99.90
31271;DHT22;17904;47.420;9.310;2023-01-15T17:04:50;1.00;99.90
31271;DHT22;17904;47.420;9.310;2023-01-15T17:09:57;1.00;99.90
31271;DHT22;17904;47.420;9.310;2023-01-15T17:12:38;1.10;99.90
31271;DHT22;17904;47.420;9.310;2023-01-15T17:17:51;1.10;99.90
31271;DHT22;17904;47.420;9.310;2023-01-15T17:20:21;1.10;99.90
31271;DHT22;17904;47.420;9.310;2023-01-15T17:22:53;1.00;99.90
31271;DHT22;17904;47.420;9.310;2023-01-15T17:25:25;1.00;99.90
31271;DHT22;17904;47.420;9.310;2023-01-15T17:27:53;1.00;99.90
31271;DHT22;17904;47.420;9.310;2023-01-15T17:30:21;1.00;99.90
31271;DHT22;17904;47.420;9.310;2023-01-15T17:32:51;1.00;99.90
31271;DHT22;17904;47.420;9.310;2023-01-15T17:35:22;0.90;99.90
31271;DHT22;17904;47.420;9.310;2023-01-15T17:37:50;0.90;99.90
31271;DHT22;17904;47.420;9.310;2023-01-15T17:40:17;0.90;99.90
31271;DHT22;17904;47.420;9.310;2023-01-15T17:42:44;0.90;99.90
31271;DHT22;17904;47.420;9.310;2023-01-15T17:45:30;0.90;99.90
31271;DHT22;17904;47.420;9.310;2023-01-15T17:47:58;0.90;99.90
31271;DHT22;17904;47.420;9.310;2023-01-15T17:50:24;0.90;99.90
31271;DHT22;17904;47.420;9.310;2023-01-15T17:52:51;0.90;99.90
31271;DHT22;17904;47.420;9.310;2023-01-15T17:55:21;0.80;99.90
31271;DHT22;17904;47.420;9.310;2023-01-15T17:58:11;0.80;99.90
31271;DHT22;17904;47.420;9.310;2023-01-15T18:00:57;0.80;99.90
31271;DHT22;17904;47.420;9.310;2023-01-15T18:03:46;0.70;99.90
31271;DHT22;17904;47.420;9.310;2023-01-15T18:06:32;0.70;99.90
31271;DHT22;17904;47.420;9.310;2023-01-15T18:09:01;0.60;99.90
31271;DHT22;17904;47.420;9.310;2023-01-15T18:11:29;0.60;99.90
31271;DHT22;17904;47.420;9.310;2023-01-15T18:13:56;0.60;99.90
31271;DHT22;17904;47.420;9.310;2023-01-15T18:16:23;0.60;99.90
31271;DHT22;17904;47.420;9.310;2023-01-15T18:18:52;0.60;99.90
31271;DHT22;17904;47.420;9.310;2023-01-15T18:21:19;0.60;99.90
31271;DHT22;17904;47.420;9.310;2023-01-15T18:23:46;0.50;99.90
31271;DHT22;17904;47.420;9.310;2023-01-15T18:26:13;0.50;99.90